createdAt,value
2022-12-18T00:00:24.703Z,101278.19
2022-12-18T00:02:55.200Z,101286.53
2022-12-18T00:05:23.262Z,101286.38
2022-12-18T00:07:51.411Z,101290.28
2022-12-18T00:10:20.210Z,101287.81
2022-12-18T00:12:48.500Z,101295.31
2022-12-18T00:15:16.685Z,101301.22
2022-12-18T00:17:45.190Z,101310.50
2022-12-18T00:20:13.259Z,101312.34
2022-12-18T00:22:41.350Z,101315.06
2022-12-18T00:25:10.892Z,101313.41
2022-12-18T00:27:38.934Z,101320.09
2022-12-18T00:30:07.401Z,101333.88
2022-12-18T00:32:36.136Z,101343.16
2022-12-18T00:35:05.568Z,101343.94
2022-12-18T00:37:37.473Z,101344.03
2022-12-18T00:40:06.837Z,101352.63
2022-12-18T00:42:56.696Z,101352.69
2022-12-18T00:45:30.926Z,101354.38
2022-12-18T00:47:59.254Z,101353.56
2022-12-18T00:50:28.319Z,101354.34
2022-12-18T00:52:56.390Z,101359.59
2022-12-18T00:55:24.614Z,101363.94
2022-12-18T00:57:53.672Z,101365.41
2022-12-18T01:00:21.951Z,101368.63
2022-12-18T01:02:50.829Z,101370.31
2022-12-18T01:05:19.592Z,101377.16
2022-12-18T01:07:47.705Z,101375.53
2022-12-18T01:10:16.489Z,101381.72
2022-12-18T01:12:45.023Z,101389.28
2022-12-18T01:15:14.114Z,101395.34
2022-12-18T01:17:43.157Z,101389.34
2022-12-18T01:20:13.942Z,101393.66
2022-12-18T01:22:42.204Z,101393.53
2022-12-18T01:25:10.867Z,101390.84
2022-12-18T01:27:39.216Z,101390.09
2022-12-18T01:30:07.996Z,101390.03
2022-12-18T01:32:36.182Z,101390.88
2022-12-18T01:35:05.031Z,101392.66
2022-12-18T01:37:33.253Z,101407.28
2022-12-18T01:40:01.613Z,101407.03
2022-12-18T01:42:30.175Z,101400.34
2022-12-18T01:45:07.746Z,101406.13
2022-12-18T01:47:48.695Z,101405.69
2022-12-18T01:50:19.977Z,101401.38
2022-12-18T01:52:54.092Z,101409.34
2022-12-18T01:55:26.114Z,101419.38
2022-12-18T01:57:57.548Z,101422.09
2022-12-18T02:00:27.429Z,101417.94
2022-12-18T02:02:56.043Z,101434.81
2022-12-18T02:06:04.625Z,101422.84
2022-12-18T02:09:04.099Z,101428.72
2022-12-18T02:11:48.748Z,101420.88
2022-12-18T02:14:36.276Z,101442.19
2022-12-18T02:17:20.578Z,101448.28
2022-12-18T02:20:07.495Z,101446.59
2022-12-18T02:22:45.510Z,101440.72
2022-12-18T02:25:22.902Z,101448.28
2022-12-18T02:27:53.860Z,101459.38
2022-12-18T02:30:23.332Z,101467.06
2022-12-18T02:32:54.128Z,101466.94
2022-12-18T02:35:25.845Z,101474.72
2022-12-18T02:37:54.776Z,101462.72
2022-12-18T02:40:25.627Z,101463.69
2022-12-18T02:42:53.790Z,101472.28
2022-12-18T02:45:22.397Z,101465.88
2022-12-18T02:47:51.600Z,101470.47
2022-12-18T02:50:28.988Z,101467.16
2022-12-18T02:53:23.201Z,101473.94
2022-12-18T02:56:34.141Z,101481.69
2022-12-18T02:59:23.276Z,101472.28
2022-12-18T03:02:32.914Z,101484.84
2022-12-18T03:05:19.073Z,101474.78
2022-12-18T03:07:58.979Z,101487.44
2022-12-18T03:10:33.274Z,101502.75
2022-12-18T03:13:14.652Z,101496.81
2022-12-18T03:15:48.917Z,101500.25
2022-12-18T03:18:24.768Z,101505.53
2022-12-18T03:20:56.770Z,101515.53
2022-12-18T03:23:30.603Z,101509.78
2022-12-18T03:26:07.557Z,101509.84
2022-12-18T03:28:43.267Z,101515.88
2022-12-18T03:31:15.123Z,101533.62
2022-12-18T03:33:58.977Z,101529.28
2022-12-18T03:36:31.160Z,101527.47
2022-12-18T03:38:59.625Z,101527.44
2022-12-18T03:41:52.123Z,101528.28
2022-12-18T03:44:39.080Z,101540.97
2022-12-18T03:47:26.517Z,101526.59
2022-12-18T03:50:12.599Z,101536.91
2022-12-18T03:52:58.152Z,101545.56
2022-12-18T03:55:29.572Z,101541.38
2022-12-18T03:58:01.564Z,101534.47
2022-12-18T04:00:33.219Z,101540.38
2022-12-18T04:03:04.948Z,101543.97
2022-12-18T04:05:36.107Z,101543.13
2022-12-18T04:08:05.474Z,101547.38
2022-12-18T04:10:38.400Z,101547.44
2022-12-18T04:13:06.763Z,101552.56
2022-12-18T04:15:38.253Z,101561.00
2022-12-18T04:18:07.479Z,101552.50
2022-12-18T04:20:37.245Z,101561.88
2022-12-18T04:23:05.471Z,101564.47
2022-12-18T04:25:34.975Z,101569.53
2022-12-18T04:28:06.119Z,101567.84
2022-12-18T04:30:35.157Z,101563.47
2022-12-18T04:33:03.832Z,101577.94
2022-12-18T04:35:32.434Z,101572.75
2022-12-18T04:38:01.025Z,101576.19
2022-12-18T04:40:29.592Z,101571.28
2022-12-18T04:42:58.408Z,101583.09
2022-12-18T04:45:26.818Z,101580.53
2022-12-18T04:47:54.885Z,101588.12
2022-12-18T04:50:23.182Z,101592.34
2022-12-18T04:52:51.549Z,101602.50
2022-12-18T04:55:20.209Z,101603.31
2022-12-18T04:57:48.747Z,101607.56
2022-12-18T05:00:17.374Z,101611.84
2022-12-18T05:02:46.034Z,101607.66
2022-12-18T05:05:14.715Z,101614.53
2022-12-18T05:07:43.029Z,101614.47
2022-12-18T05:10:11.556Z,101614.47
2022-12-18T05:12:58.979Z,101623.03
2022-12-18T05:15:33.422Z,101612.81
2022-12-18T05:18:02.265Z,101615.41
2022-12-18T05:20:30.945Z,101628.94
2022-12-18T05:22:59.287Z,101622.94
2022-12-18T05:25:27.709Z,101623.03
2022-12-18T05:27:57.395Z,101625.53
2022-12-18T05:30:26.442Z,101641.66
2022-12-18T05:32:54.625Z,101641.62
2022-12-18T05:35:23.600Z,101633.06
2022-12-18T05:37:51.770Z,101638.16
2022-12-18T05:40:19.973Z,101647.56
2022-12-18T05:42:48.362Z,101649.31
2022-12-18T05:45:16.513Z,101651.88
2022-12-18T05:47:44.809Z,101661.19
2022-12-18T05:50:13.157Z,101656.13
2022-12-18T05:52:41.291Z,101653.56
2022-12-18T05:55:09.435Z,101661.16
2022-12-18T05:57:37.848Z,101671.38
2022-12-18T06:00:06.786Z,101672.25
2022-12-18T06:02:40.288Z,101667.22
2022-12-18T06:05:09.131Z,101671.47
2022-12-18T06:07:37.192Z,101680.78
2022-12-18T06:10:06.317Z,101685.84
2022-12-18T06:12:35.078Z,101688.41
2022-12-18T06:15:03.473Z,101694.34
2022-12-18T06:17:33.267Z,101693.56
2022-12-18T06:20:02.378Z,101687.59
2022-12-18T06:22:32.969Z,101694.37
2022-12-18T06:25:01.739Z,101704.53
2022-12-18T06:27:30.081Z,101701.97
2022-12-18T06:29:58.243Z,101699.44
2022-12-18T06:32:26.995Z,101720.66
2022-12-18T06:34:56.421Z,101721.50
2022-12-18T06:37:27.290Z,101720.66
2022-12-18T06:39:55.814Z,101720.66
2022-12-18T06:42:24.789Z,101724.87
2022-12-18T06:44:53.068Z,101724.03
2022-12-18T06:47:21.577Z,101733.38
2022-12-18T06:49:49.962Z,101735.91
2022-12-18T06:52:18.544Z,101734.19
2022-12-18T06:54:46.904Z,101742.66
2022-12-18T06:57:15.099Z,101745.19
2022-12-18T06:59:43.345Z,101740.12
2022-12-18T07:02:13.894Z,101751.13
2022-12-18T07:04:42.183Z,101742.69
2022-12-18T07:07:10.267Z,101754.53
2022-12-18T07:09:38.631Z,101740.12
2022-12-18T07:12:07.937Z,101761.28
2022-12-18T07:14:35.993Z,101768.91
2022-12-18T07:17:04.533Z,101762.97
2022-12-18T07:19:34.298Z,101761.25
2022-12-18T07:22:02.896Z,101764.47
2022-12-18T07:24:31.450Z,101777.91
2022-12-18T07:26:59.683Z,101781.97
2022-12-18T07:29:27.890Z,101779.25
2022-12-18T07:31:56.449Z,101779.91
2022-12-18T07:34:24.741Z,101795.91
2022-12-18T07:36:53.088Z,101793.28
2022-12-18T07:39:21.563Z,101800.88
2022-12-18T07:42:10.094Z,101810.22
2022-12-18T07:44:41.435Z,101798.97
2022-12-18T07:47:12.200Z,101810.84
2022-12-18T07:49:41.055Z,101805.75
2022-12-18T07:52:10.523Z,101819.34
2022-12-18T07:54:38.654Z,101825.88
2022-12-18T07:57:16.543Z,101834.25
2022-12-18T07:59:55.650Z,101846.28
2022-12-18T08:02:24.274Z,101841.13
2022-12-18T08:04:52.687Z,101841.97
2022-12-18T08:07:20.751Z,101842.88
2022-12-18T08:09:49.153Z,101855.38
2022-12-18T08:12:17.645Z,101847.34
2022-12-18T08:14:45.806Z,101859.09
2022-12-18T08:17:14.054Z,101853.56
2022-12-18T08:19:42.471Z,101866.97
2022-12-18T08:22:10.583Z,101865.09
2022-12-18T08:24:38.915Z,101859.72
2022-12-18T08:27:28.425Z,101858.81
2022-12-18T08:29:57.797Z,101861.25
2022-12-18T08:32:27.866Z,101867.44
2022-12-18T08:34:56.065Z,101854.28
2022-12-18T08:37:24.197Z,101870.00
2022-12-18T08:39:52.734Z,101872.34
2022-12-18T08:42:39.567Z,101869.97
2022-12-18T08:45:08.516Z,101872.94
2022-12-18T08:47:36.555Z,101871.94
2022-12-18T08:50:04.887Z,101869.44
2022-12-18T08:52:33.847Z,101880.28
2022-12-18T08:55:01.930Z,101885.19
2022-12-18T08:57:30.128Z,101872.75
2022-12-18T08:59:58.746Z,101879.59
2022-12-18T09:02:27.092Z,101879.78
2022-12-18T09:04:57.635Z,101885.59
2022-12-18T09:07:26.581Z,101883.06
2022-12-18T09:09:54.674Z,101889.91
2022-12-18T09:12:22.879Z,101893.41
2022-12-18T09:14:51.470Z,101889.41
2022-12-18T09:17:19.513Z,101903.66
2022-12-18T09:19:48.140Z,101898.91
2022-12-18T09:22:16.815Z,101908.31
2022-12-18T09:24:44.922Z,101904.09
2022-12-18T09:27:13.137Z,101913.72
2022-12-18T09:29:41.724Z,101907.87
2022-12-18T09:32:09.738Z,101920.25
2022-12-18T09:34:38.160Z,101903.06
2022-12-18T09:37:06.676Z,101913.75
2022-12-18T09:39:34.796Z,101908.47
2022-12-18T09:42:03.495Z,101906.53
2022-12-18T09:44:45.081Z,101899.38
2022-12-18T09:47:27.043Z,101903.09
2022-12-18T09:50:37.611Z,101907.56
2022-12-18T09:53:17.074Z,101907.00
2022-12-18T09:55:48.169Z,101897.00
2022-12-18T09:58:34.319Z,101908.88
2022-12-18T10:01:02.790Z,101906.19
2022-12-18T10:03:31.356Z,101894.37
2022-12-18T10:06:08.210Z,101892.09
2022-12-18T10:08:42.943Z,101891.91
2022-12-18T10:11:41.963Z,101894.16
2022-12-18T10:14:39.463Z,101891.25
2022-12-18T10:17:16.175Z,101893.38
2022-12-18T10:19:59.714Z,101884.53
2022-12-18T10:22:40.526Z,101886.75
2022-12-18T10:25:21.108Z,101885.44
2022-12-18T10:27:54.643Z,101897.78
2022-12-18T10:30:24.806Z,101881.91
2022-12-18T10:32:53.386Z,101893.44
2022-12-18T10:35:25.951Z,101892.44
2022-12-18T10:38:22.885Z,101893.69
2022-12-18T10:41:03.509Z,101886.38
2022-12-18T10:43:35.870Z,101886.72
2022-12-18T10:46:09.988Z,101879.44
2022-12-18T10:48:48.154Z,101898.00
2022-12-18T10:51:38.452Z,101889.69
2022-12-18T10:54:15.476Z,101889.53
2022-12-18T10:56:44.257Z,101885.19
2022-12-18T10:59:15.429Z,101875.94
2022-12-18T11:01:48.094Z,101879.47
2022-12-18T11:04:25.522Z,101888.75
2022-12-18T11:07:05.825Z,101872.88
2022-12-18T11:09:36.803Z,101874.66
2022-12-18T11:12:12.167Z,101861.56
2022-12-18T11:14:48.160Z,101868.41
2022-12-18T11:17:37.238Z,101864.91
2022-12-18T11:20:27.710Z,101860.56
2022-12-18T11:22:59.535Z,101862.25
2022-12-18T11:25:33.247Z,101858.66
2022-12-18T11:28:28.180Z,101872.56
2022-12-18T11:31:25.506Z,101870.47
2022-12-18T11:34:28.468Z,101873.16
2022-12-18T11:36:49.720Z,101861.78
2022-12-18T11:39:41.785Z,101858.44
2022-12-18T11:42:19.538Z,101852.97
2022-12-18T11:44:53.737Z,101854.34
2022-12-18T11:47:55.945Z,101849.53
2022-12-18T11:50:30.130Z,101856.41
2022-12-18T11:53:04.190Z,101851.88
2022-12-18T11:55:41.683Z,101851.72
2022-12-18T11:58:16.131Z,101853.63
2022-12-18T12:01:07.982Z,101848.84
2022-12-18T12:04:06.840Z,101859.78
2022-12-18T12:06:47.616Z,101856.41
2022-12-18T12:09:32.663Z,101841.13
2022-12-18T12:12:48.721Z,101856.16
2022-12-18T12:15:25.596Z,101843.53
2022-12-18T12:18:11.433Z,101844.53
2022-12-18T12:21:05.311Z,101846.94
2022-12-18T12:23:36.477Z,101848.69
2022-12-18T12:26:10.793Z,101848.09
2022-12-18T12:29:21.108Z,101844.03
2022-12-18T12:32:06.707Z,101849.44
2022-12-18T12:35:11.776Z,101846.94
2022-12-18T12:37:46.226Z,101837.56
2022-12-18T12:40:50.167Z,101842.84
2022-12-18T12:43:30.286Z,101840.69
2022-12-18T12:48:59.162Z,101850.19
2022-12-18T12:51:31.313Z,101865.66
2022-12-18T12:54:01.356Z,101861.16
2022-12-18T12:56:56.074Z,101872.41
2022-12-18T12:59:49.279Z,101875.28
2022-12-18T13:02:26.255Z,101882.94
2022-12-18T13:05:30.562Z,101880.50
2022-12-18T13:08:11.140Z,101894.00
2022-12-18T13:10:42.995Z,101881.16
2022-12-18T13:13:17.206Z,101888.78
2022-12-18T13:13:43.515Z,101851.91
2022-12-18T13:16:09.225Z,101896.66
2022-12-18T13:18:37.655Z,101893.22
2022-12-18T13:21:25.213Z,101885.50
2022-12-18T13:23:54.316Z,101900.22
2022-12-18T13:26:32.193Z,101901.78
2022-12-18T13:29:03.086Z,101904.37
2022-12-18T13:31:40.861Z,101895.19
2022-12-18T13:34:27.487Z,101898.50
2022-12-18T13:37:17.699Z,101904.22
2022-12-18T13:39:46.295Z,101905.06
2022-12-18T13:42:35.899Z,101912.59
2022-12-18T13:45:43.901Z,101919.53
2022-12-18T13:48:21.911Z,101911.03
2022-12-18T13:50:53.635Z,101918.75
2022-12-18T13:53:34.048Z,101921.50
2022-12-18T13:56:03.799Z,101925.06
2022-12-18T13:58:32.984Z,101920.03
2022-12-18T14:01:03.078Z,101912.50
2022-12-18T14:03:32.026Z,101916.81
2022-12-18T14:06:04.421Z,101922.97
2022-12-18T14:08:38.767Z,101929.09
2022-12-18T14:11:08.101Z,101914.72
2022-12-18T14:13:43.013Z,101922.59
2022-12-18T14:16:15.459Z,101924.34
2022-12-18T14:19:04.116Z,101921.06
2022-12-18T14:21:38.963Z,101930.41
2022-12-18T14:24:22.556Z,101914.38
2022-12-18T14:26:51.599Z,101928.31
2022-12-18T14:29:27.664Z,101936.19
2022-12-18T14:32:05.537Z,101940.47
2022-12-18T14:34:33.983Z,101943.19
2022-12-18T14:37:02.059Z,101950.16
2022-12-18T14:39:30.412Z,101939.25
2022-12-18T14:41:58.906Z,101946.25
2022-12-18T14:44:34.579Z,101944.66
2022-12-18T14:47:16.218Z,101949.03
2022-12-18T14:49:44.985Z,101956.84
2022-12-18T14:52:33.006Z,101971.47
2022-12-18T14:55:01.126Z,101974.97
2022-12-18T14:57:37.397Z,101969.09
2022-12-18T15:00:07.998Z,101976.81
2022-12-18T15:02:37.682Z,101964.06
2022-12-18T15:05:19.172Z,101972.72
2022-12-18T15:07:50.806Z,101985.69
2022-12-18T15:10:25.892Z,101989.31
2022-12-18T15:12:58.863Z,101979.97
2022-12-18T15:15:40.574Z,101990.31
2022-12-18T15:18:09.394Z,101994.62
2022-12-18T15:21:00.336Z,102004.88
2022-12-18T15:23:30.854Z,102004.16
2022-12-18T15:26:01.689Z,102000.78
2022-12-18T15:28:47.784Z,102011.06
2022-12-18T15:31:17.832Z,102005.94
2022-12-18T15:34:06.895Z,102010.16
2022-12-18T15:36:37.602Z,102005.06
2022-12-18T15:39:07.120Z,102009.41
2022-12-18T15:41:37.055Z,102009.47
2022-12-18T15:44:24.511Z,102015.41
2022-12-18T15:46:53.069Z,102025.59
2022-12-18T15:49:21.767Z,102021.47
2022-12-18T15:52:02.943Z,102029.28
2022-12-18T15:54:50.548Z,102027.66
2022-12-18T15:57:25.088Z,102033.75
2022-12-18T15:59:57.512Z,102039.78
2022-12-18T16:02:26.679Z,102036.44
2022-12-18T16:04:55.327Z,102049.06
2022-12-18T16:07:26.032Z,102048.03
2022-12-18T16:09:56.519Z,102048.13
2022-12-18T16:12:26.610Z,102045.94
2022-12-18T16:14:55.064Z,102050.00
2022-12-18T16:17:23.835Z,102054.41
2022-12-18T16:19:52.244Z,102054.44
2022-12-18T16:22:26.370Z,102060.50
2022-12-18T16:24:56.658Z,102055.44
2022-12-18T16:27:26.361Z,102059.66
2022-12-18T16:29:55.105Z,102070.75
2022-12-18T16:32:24.556Z,102074.16
2022-12-18T16:34:53.192Z,102072.47
2022-12-18T16:37:21.872Z,102063.94
2022-12-18T16:39:50.333Z,102070.78
2022-12-18T16:42:20.573Z,102073.34
2022-12-18T16:44:50.509Z,102079.34
2022-12-18T16:47:19.819Z,102081.03
2022-12-18T16:49:51.912Z,102081.69
2022-12-18T16:52:22.034Z,102079.97
2022-12-18T16:54:50.745Z,102083.44
2022-12-18T16:57:21.562Z,102085.25
2022-12-18T16:59:54.389Z,102086.12
2022-12-18T17:02:27.043Z,102080.25
2022-12-18T17:04:58.646Z,102085.38
2022-12-18T17:07:28.452Z,102080.28
2022-12-18T17:09:58.010Z,102069.19
2022-12-18T17:12:27.367Z,102069.25
2022-12-18T17:14:56.450Z,102067.59
2022-12-18T17:17:25.425Z,102072.88
2022-12-18T17:19:53.929Z,102081.41
2022-12-18T17:22:23.832Z,102084.75
2022-12-18T17:24:52.808Z,102076.22
2022-12-18T17:27:20.912Z,102085.59
2022-12-18T17:29:49.394Z,102084.75
2022-12-18T17:32:18.320Z,102091.53
2022-12-18T17:34:46.794Z,102089.88
2022-12-18T17:37:15.833Z,102082.25
2022-12-18T17:39:44.639Z,102088.22
2022-12-18T17:42:15.575Z,102083.97
2022-12-18T17:44:45.018Z,102098.44
2022-12-18T17:47:15.094Z,102094.22
2022-12-18T17:49:43.638Z,102090.81
2022-12-18T17:52:12.179Z,102102.72
2022-12-18T17:54:42.153Z,102098.50
2022-12-18T17:57:10.991Z,102103.59
2022-12-18T17:59:39.651Z,102080.66
2022-12-18T18:02:11.464Z,102078.91
2022-12-18T18:04:41.126Z,102084.03
2022-12-18T18:07:09.804Z,102099.31
2022-12-18T18:09:38.337Z,102082.31
2022-12-18T18:12:26.055Z,102098.53
2022-12-18T18:14:55.148Z,102098.59
2022-12-18T18:17:24.469Z,102100.31
2022-12-18T18:19:53.174Z,102102.06
2022-12-18T18:22:21.690Z,102101.19
2022-12-18T18:24:51.732Z,102095.22
2022-12-18T18:27:20.237Z,102096.09
2022-12-18T18:29:49.026Z,102087.63
2022-12-18T18:32:17.596Z,102112.25
2022-12-18T18:34:45.888Z,102109.69
2022-12-18T18:37:14.276Z,102102.03
2022-12-18T18:39:43.281Z,102103.72
2022-12-18T18:42:11.530Z,102102.06
2022-12-18T18:44:42.286Z,102109.72
2022-12-18T18:47:14.733Z,102108.00
2022-12-18T18:49:43.239Z,102123.34
2022-12-18T18:52:11.797Z,102120.78
2022-12-18T18:54:57.263Z,102119.06
2022-12-18T18:57:30.661Z,102129.25
2022-12-18T18:59:59.611Z,102127.59
2022-12-18T19:02:27.757Z,102119.94
2022-12-18T19:04:57.458Z,102126.72
2022-12-18T19:07:30.503Z,102134.34
2022-12-18T19:10:04.264Z,102144.53
2022-12-18T19:12:55.748Z,102152.16
2022-12-18T19:15:24.185Z,102144.53
2022-12-18T19:17:53.266Z,102137.75
2022-12-18T19:20:21.959Z,102147.94
2022-12-18T19:22:55.787Z,102142.84
2022-12-18T19:25:40.647Z,102144.56
2022-12-18T19:28:21.329Z,102149.63
2022-12-18T19:30:58.798Z,102166.63
2022-12-18T19:33:45.634Z,102164.06
2022-12-18T19:36:14.611Z,102167.47
2022-12-18T19:38:45.252Z,102167.44
2022-12-18T19:41:15.027Z,102167.44
2022-12-18T19:43:45.560Z,102172.53
2022-12-18T19:46:18.908Z,102165.72
2022-12-18T19:48:48.385Z,102168.28
2022-12-18T19:51:20.634Z,102177.56
2022-12-18T19:53:54.936Z,102188.56
2022-12-18T19:56:29.242Z,102171.59
2022-12-18T19:58:57.905Z,102179.25
2022-12-18T20:01:29.796Z,102180.94
2022-12-18T20:04:00.349Z,102175.84
2022-12-18T20:06:35.084Z,102184.34
2022-12-18T20:09:07.257Z,102190.28
2022-12-18T20:11:41.944Z,102188.59
2022-12-18T20:14:12.475Z,102197.94
2022-12-18T20:16:41.353Z,102187.78
2022-12-18T20:19:10.927Z,102196.28
2022-12-18T20:21:40.386Z,102194.56
2022-12-18T20:24:08.839Z,102203.88
2022-12-18T20:26:37.370Z,102210.69
2022-12-18T20:29:06.913Z,102214.06
2022-12-18T20:31:35.358Z,102203.00
2022-12-18T20:34:05.092Z,102218.28
2022-12-18T20:36:44.699Z,102217.44
2022-12-18T20:39:13.736Z,102218.31
2022-12-18T20:41:44.215Z,102216.59
2022-12-18T20:44:22.990Z,102221.69
2022-12-18T20:46:57.145Z,102223.34
2022-12-18T20:49:26.898Z,102208.94
2022-12-18T20:51:57.211Z,102214.88
2022-12-18T20:54:29.860Z,102229.31
2022-12-18T20:56:58.442Z,102214.06
2022-12-18T20:59:26.607Z,102228.50
2022-12-18T21:01:55.510Z,102231.03
2022-12-18T21:04:24.612Z,102240.34
2022-12-18T21:07:00.790Z,102232.69
2022-12-18T21:09:37.739Z,102244.59
2022-12-18T21:12:40.542Z,102240.28
2022-12-18T21:15:28.350Z,102237.78
2022-12-18T21:17:57.097Z,102236.91
2022-12-18T21:20:25.684Z,102246.22
2022-12-18T21:22:54.879Z,102257.97
2022-12-18T21:25:26.110Z,102235.06
2022-12-18T21:27:54.483Z,102225.75
2022-12-18T21:30:22.568Z,102230.03
2022-12-18T21:32:50.882Z,102234.31
2022-12-18T21:35:19.151Z,102240.28
2022-12-18T21:37:49.062Z,102231.00
2022-12-18T21:40:17.669Z,102231.84
2022-12-18T21:43:05.231Z,102222.53
2022-12-18T21:45:33.769Z,102227.53
2022-12-18T21:48:01.928Z,102231.75
2022-12-18T21:50:33.533Z,102233.47
2022-12-18T21:53:02.103Z,102236.91
2022-12-18T21:55:30.401Z,102229.22
2022-12-18T21:57:58.606Z,102228.31
2022-12-18T22:00:27.054Z,102221.53
2022-12-18T22:03:09.410Z,102239.41
2022-12-18T22:05:44.509Z,102230.13
2022-12-18T22:08:13.758Z,102235.25
2022-12-18T22:10:41.992Z,102235.28
2022-12-18T22:13:10.334Z,102239.53
2022-12-18T22:15:38.816Z,102229.41
2022-12-18T22:18:06.941Z,102229.38
2022-12-18T22:20:35.094Z,102240.44
2022-12-18T22:23:06.184Z,102231.97
2022-12-18T22:25:37.840Z,102232.00
2022-12-18T22:28:26.984Z,102232.00
2022-12-18T22:30:59.338Z,102231.16
2022-12-18T22:33:28.613Z,102237.94
2022-12-18T22:35:56.961Z,102237.94
2022-12-18T22:38:25.039Z,102246.44
2022-12-18T22:40:54.799Z,102250.72
2022-12-18T22:43:23.159Z,102254.94
2022-12-18T22:45:51.345Z,102251.56
2022-12-18T22:48:19.857Z,102249.03
2022-12-18T22:50:48.137Z,102243.06
2022-12-18T22:53:17.924Z,102252.41
2022-12-18T22:55:46.383Z,102255.81
2022-12-18T22:58:14.716Z,102249.84
2022-12-18T23:00:43.073Z,102252.41
2022-12-18T23:03:11.587Z,102257.53
2022-12-18T23:05:39.742Z,102243.91
2022-12-18T23:08:07.950Z,102247.31
2022-12-18T23:10:39.613Z,102249.81
2022-12-18T23:13:08.833Z,102246.44
2022-12-18T23:15:42.118Z,102242.16
2022-12-18T23:18:10.463Z,102244.72
2022-12-18T23:20:38.788Z,102255.78
2022-12-18T23:23:08.310Z,102261.72
2022-12-18T23:25:36.954Z,102257.50
2022-12-18T23:28:05.838Z,102251.53
2022-12-18T23:30:34.333Z,102247.22
2022-12-18T23:33:02.919Z,102239.53
2022-12-18T23:35:31.648Z,102242.94
2022-12-18T23:38:00.374Z,102248.84
2022-12-18T23:40:30.142Z,102245.47
2022-12-18T23:43:00.168Z,102242.97
2022-12-18T23:45:28.347Z,102245.47
2022-12-18T23:47:56.963Z,102249.75
2022-12-18T23:50:27.765Z,102247.25
2022-12-18T23:53:04.596Z,102240.47
2022-12-18T23:55:42.176Z,102254.06
2022-12-18T23:58:20.437Z,102251.47
